createdAt,value
2022-08-16T00:01:23.676Z,97452.84
2022-08-16T00:03:52.647Z,97433.00
2022-08-16T00:06:19.545Z,97444.84
2022-08-16T00:08:46.053Z,97446.50
2022-08-16T00:11:15.399Z,97459.19
2022-08-16T00:13:43.791Z,97454.00
2022-08-16T00:16:57.796Z,97455.19
2022-08-16T00:19:08.549Z,97467.34
2022-08-16T00:21:35.286Z,97452.28
2022-08-16T00:24:04.677Z,97459.50
2022-08-16T00:26:35.767Z,97458.84
2022-08-16T00:29:05.332Z,97464.88
2022-08-16T00:31:58.843Z,97458.91
2022-08-16T00:34:21.289Z,97455.31
2022-08-16T00:36:48.053Z,97453.31
2022-08-16T00:39:15.739Z,97450.66
2022-08-16T00:41:45.544Z,97456.56
2022-08-16T00:44:14.310Z,97457.06
2022-08-16T00:46:54.011Z,97454.88
2022-08-16T00:49:39.521Z,97461.47
2022-08-16T00:52:29.663Z,97460.97
2022-08-16T00:54:58.617Z,97452.28
2022-08-16T00:57:27.450Z,97465.84
2022-08-16T01:00:19.927Z,97459.91
2022-08-16T01:02:48.966Z,97464.84
2022-08-16T01:05:16.136Z,97473.94
2022-08-16T01:07:51.805Z,97434.06
2022-08-16T01:10:31.380Z,97460.47
2022-08-16T01:13:05.487Z,97446.84
2022-08-16T01:15:35.347Z,97450.47
2022-08-16T01:18:04.854Z,97459.59
2022-08-16T01:20:37.913Z,97459.28
2022-08-16T01:23:14.543Z,97467.28
2022-08-16T01:25:59.940Z,97464.22
2022-08-16T01:28:38.791Z,97464.19
2022-08-16T01:31:14.976Z,97464.69
2022-08-16T01:33:44.432Z,97459.88
2022-08-16T01:36:13.143Z,97432.50
2022-08-16T01:42:55.338Z,97456.66
2022-08-16T01:45:22.941Z,97467.34
2022-08-16T01:47:52.280Z,97452.38
2022-08-16T01:50:43.556Z,97431.88
2022-08-16T01:53:10.227Z,97443.84
2022-08-16T01:55:56.708Z,97460.78
2022-08-16T01:58:24.036Z,97468.31
2022-08-16T02:00:50.772Z,97456.59
2022-08-16T02:03:17.627Z,97460.88
2022-08-16T02:05:52.264Z,97482.88
2022-08-16T02:08:33.412Z,97469.41
2022-08-16T02:11:07.728Z,97477.63
2022-08-16T02:13:41.705Z,97473.28
2022-08-16T02:16:18.864Z,97455.41
2022-08-16T02:18:46.820Z,97471.00
2022-08-16T02:21:14.247Z,97481.13
2022-08-16T02:23:43.249Z,97473.59
2022-08-16T02:26:10.059Z,97491.13
2022-08-16T02:28:45.318Z,97478.00
2022-08-16T02:31:16.065Z,97474.16
2022-08-16T02:33:50.183Z,97468.28
2022-08-16T02:36:48.087Z,97467.75
2022-08-16T02:39:17.315Z,97467.78
2022-08-16T02:41:45.899Z,97457.06
2022-08-16T02:44:20.640Z,97445.03
2022-08-16T02:46:53.856Z,97457.09
2022-08-16T02:49:21.747Z,97453.91
2022-08-16T02:51:50.212Z,97451.22
2022-08-16T02:54:17.004Z,97454.66
2022-08-16T02:56:47.930Z,97451.72
2022-08-16T02:59:15.038Z,97419.78
2022-08-16T03:01:42.497Z,97452.25
2022-08-16T03:04:48.911Z,97446.81
2022-08-16T03:07:05.046Z,97444.66
2022-08-16T03:09:40.799Z,97437.41
2022-08-16T03:13:25.453Z,97442.16
2022-08-16T03:15:53.442Z,97437.59
2022-08-16T03:18:40.193Z,97442.38
2022-08-16T03:21:07.530Z,97445.38
2022-08-16T03:24:29.863Z,97449.19
2022-08-16T03:31:10.582Z,97453.34
2022-08-16T03:33:42.036Z,97443.66
2022-08-16T03:36:29.957Z,97448.19
2022-08-16T03:38:59.706Z,97446.56
2022-08-16T03:41:50.006Z,97450.38
2022-08-16T03:44:43.439Z,97453.66
2022-08-16T03:47:03.561Z,97453.34
2022-08-16T03:49:36.610Z,97452.84
2022-08-16T03:52:06.093Z,97450.16
2022-08-16T03:54:35.860Z,97455.53
2022-08-16T03:57:04.992Z,97449.09
2022-08-16T03:59:32.942Z,97452.00
2022-08-16T04:02:10.563Z,97451.47
2022-08-16T04:04:39.657Z,97448.56
2022-08-16T04:07:07.405Z,97449.06
2022-08-16T04:09:38.531Z,97451.75
2022-08-16T04:12:10.666Z,97454.47
2022-08-16T04:14:46.422Z,97390.91
2022-08-16T04:17:15.366Z,97445.28
2022-08-16T04:19:45.661Z,97449.09
2022-08-16T04:22:17.388Z,97456.63
2022-08-16T04:24:54.765Z,97452.88
2022-08-16T04:27:31.499Z,97451.53
2022-08-16T04:30:02.909Z,97462.53
2022-08-16T04:32:31.714Z,97465.75
2022-08-16T04:34:58.519Z,97451.25
2022-08-16T04:37:26.788Z,97464.94
2022-08-16T04:40:05.635Z,97468.44
2022-08-16T04:42:35.850Z,97479.47
2022-08-16T04:45:06.847Z,97473.31
2022-08-16T04:47:35.758Z,97479.50
2022-08-16T04:50:10.942Z,97473.28
2022-08-16T04:52:56.827Z,97472.47
2022-08-16T04:55:37.637Z,97482.19
2022-08-16T04:58:38.279Z,97455.59
2022-08-16T05:00:56.990Z,97477.06
2022-08-16T05:03:23.910Z,97483.53
2022-08-16T05:05:59.381Z,97475.47
2022-08-16T05:08:31.960Z,97483.00
2022-08-16T05:11:22.642Z,97482.44
2022-08-16T05:13:49.563Z,97481.09
2022-08-16T05:16:25.446Z,97458.28
2022-08-16T05:19:02.207Z,97497.47
2022-08-16T05:21:38.350Z,97496.38
2022-08-16T05:24:07.367Z,97496.63
2022-08-16T05:26:37.530Z,97495.81
2022-08-16T05:29:11.046Z,97493.94
2022-08-16T05:31:54.308Z,97506.03
2022-08-16T05:34:22.493Z,97504.13
2022-08-16T05:36:53.006Z,97513.50
2022-08-16T05:39:22.341Z,97512.41
2022-08-16T05:41:51.725Z,97505.94
2022-08-16T05:44:23.509Z,97510.41
2022-08-16T05:46:55.903Z,97513.22
2022-08-16T05:49:38.651Z,97522.94
2022-08-16T05:52:11.576Z,97517.94
2022-08-16T05:54:46.691Z,97497.06
2022-08-16T05:57:16.355Z,97518.44
2022-08-16T05:59:43.905Z,97523.19
2022-08-16T06:02:10.361Z,97515.06
2022-08-16T06:04:38.519Z,97513.22
2022-08-16T06:07:24.531Z,97520.09
2022-08-16T06:10:31.907Z,97526.59
2022-08-16T06:12:59.290Z,97524.66
2022-08-16T06:15:26.467Z,97523.75
2022-08-16T06:17:53.638Z,97527.28
2022-08-16T06:20:35.176Z,97519.06
2022-08-16T06:23:17.104Z,97520.13
2022-08-16T06:25:57.293Z,97528.09
2022-08-16T06:28:35.779Z,97534.16
2022-08-16T06:31:04.650Z,97521.22
2022-08-16T06:33:41.147Z,97532.44
2022-08-16T06:36:09.255Z,97522.84
2022-08-16T06:38:37.878Z,97530.19
2022-08-16T06:41:16.351Z,97524.94
2022-08-16T06:43:43.261Z,97525.19
2022-08-16T06:46:31.437Z,97528.00
2022-08-16T06:49:05.256Z,97511.34
2022-08-16T06:51:46.468Z,97515.78
2022-08-16T06:54:18.912Z,97510.94
2022-08-16T06:56:45.780Z,97506.97
2022-08-16T06:59:13.980Z,97501.09
2022-08-16T07:01:54.520Z,97493.44
2022-08-16T07:04:31.937Z,97508.22
2022-08-16T07:07:05.796Z,97508.84
2022-08-16T07:09:32.755Z,97521.97
2022-08-16T07:12:05.391Z,97511.53
2022-08-16T07:14:34.995Z,97524.00
2022-08-16T07:17:07.889Z,97509.63
2022-08-16T07:20:02.582Z,97519.31
2022-08-16T07:22:39.112Z,97521.19
2022-08-16T07:25:16.825Z,97512.19
2022-08-16T07:27:44.235Z,97520.41
2022-08-16T07:30:45.538Z,97507.19
2022-08-16T07:33:07.250Z,97513.06
2022-08-16T07:35:36.037Z,97515.91
2022-08-16T07:38:06.146Z,97512.44
2022-08-16T07:41:00.339Z,97502.78
2022-08-16T07:43:29.029Z,97500.03
2022-08-16T07:45:59.444Z,97506.19
2022-08-16T07:48:29.075Z,97506.03
2022-08-16T07:50:59.558Z,97502.13
2022-08-16T07:53:31.556Z,97508.91
2022-08-16T07:56:00.287Z,97506.88
2022-08-16T07:58:36.344Z,97506.84
2022-08-16T08:01:14.931Z,97503.72
2022-08-16T08:03:52.653Z,97512.06
2022-08-16T08:06:28.477Z,97514.13
2022-08-16T08:08:59.922Z,97523.69
2022-08-16T08:11:29.448Z,97522.31
2022-08-16T08:14:03.497Z,97517.19
2022-08-16T08:16:33.434Z,97527.28
2022-08-16T08:19:03.863Z,97526.63
2022-08-16T08:22:01.035Z,97517.41
2022-08-16T08:24:32.001Z,97522.91
2022-08-16T08:27:02.224Z,97523.34
2022-08-16T08:29:37.470Z,97487.94
2022-08-16T08:32:57.882Z,97527.22
2022-08-16T08:35:00.218Z,97532.78
2022-08-16T08:37:54.130Z,97528.09
2022-08-16T08:40:18.727Z,97530.28
2022-08-16T08:42:48.021Z,97540.09
2022-08-16T08:45:36.058Z,97532.25
2022-08-16T08:48:03.526Z,97535.09
2022-08-16T08:50:33.902Z,97530.75
2022-08-16T08:53:02.831Z,97524.53
2022-08-16T08:55:35.257Z,97525.25
2022-08-16T08:58:03.593Z,97522.41
2022-08-16T09:00:51.468Z,97516.84
2022-08-16T09:03:19.213Z,97525.00
2022-08-16T09:05:51.503Z,97531.69
2022-08-16T09:08:19.878Z,97531.56
2022-08-16T09:10:59.258Z,97537.56
2022-08-16T09:13:32.950Z,97536.91
2022-08-16T09:16:01.445Z,97546.47
2022-08-16T09:18:35.742Z,97553.19
2022-08-16T09:21:07.087Z,97550.00
2022-08-16T09:23:37.421Z,97551.53
2022-08-16T09:26:44.498Z,97547.88
2022-08-16T09:29:17.034Z,97539.47
2022-08-16T09:31:42.090Z,97553.59
2022-08-16T09:34:10.518Z,97553.41
2022-08-16T09:36:45.024Z,97551.69
2022-08-16T09:39:16.250Z,97555.66
2022-08-16T09:41:53.794Z,97552.75
2022-08-16T09:45:12.406Z,97553.00
2022-08-16T09:47:10.347Z,97544.88
2022-08-16T09:49:41.050Z,97551.75
2022-08-16T09:52:09.534Z,97551.84
2022-08-16T09:54:37.814Z,97557.59
2022-08-16T09:57:04.916Z,97544.78
2022-08-16T09:59:38.533Z,97551.97
2022-08-16T10:02:27.753Z,97544.00
2022-08-16T10:04:54.363Z,97537.56
2022-08-16T10:07:21.351Z,97529.78
2022-08-16T10:09:54.986Z,97534.03
2022-08-16T10:12:45.956Z,97540.53
2022-08-16T10:15:20.912Z,97534.78
2022-08-16T10:18:00.654Z,97541.16
2022-08-16T10:20:30.518Z,97537.28
2022-08-16T10:23:03.666Z,97467.75
2022-08-16T10:27:20.710Z,97536.19
2022-08-16T10:28:30.478Z,97531.94
2022-08-16T10:31:03.565Z,97532.34
2022-08-16T10:33:33.459Z,97538.75
2022-08-16T10:36:03.981Z,97551.47
2022-08-16T10:38:33.161Z,97549.38
2022-08-16T10:41:04.405Z,97538.69
2022-08-16T10:43:31.159Z,97539.19
2022-08-16T10:46:00.763Z,97536.78
2022-08-16T10:48:29.068Z,97536.81
2022-08-16T10:50:58.658Z,97523.16
2022-08-16T10:53:32.842Z,97488.44
2022-08-16T10:56:03.408Z,97532.19
2022-08-16T10:58:34.563Z,97532.94
2022-08-16T11:03:57.334Z,97521.53
2022-08-16T11:06:26.953Z,97539.56
2022-08-16T11:14:29.786Z,97545.28
2022-08-16T11:17:02.672Z,97540.38
2022-08-16T11:20:00.733Z,97540.00
2022-08-16T11:22:47.060Z,97538.09
2022-08-16T11:25:12.515Z,97540.25
2022-08-16T11:27:42.017Z,97540.97
2022-08-16T11:30:19.908Z,97537.63
2022-08-16T11:32:46.928Z,97539.44
2022-08-16T11:35:17.953Z,97534.84
2022-08-16T11:38:47.121Z,97539.50
2022-08-16T11:40:59.017Z,97544.91
2022-08-16T11:43:31.717Z,97533.22
2022-08-16T11:46:43.572Z,97529.84
2022-08-16T11:48:51.705Z,97532.22
2022-08-16T11:51:18.459Z,97535.94
2022-08-16T11:53:45.797Z,97532.50
2022-08-16T11:56:14.741Z,97535.59
2022-08-16T11:58:42.770Z,97525.06
2022-08-16T12:01:18.074Z,97525.66
2022-08-16T12:03:56.950Z,97531.25
2022-08-16T12:06:25.113Z,97526.78
2022-08-16T12:09:00.841Z,97530.03
2022-08-16T12:11:28.993Z,97536.34
2022-08-16T12:14:05.697Z,97522.00
2022-08-16T12:16:34.307Z,97527.88
2022-08-16T12:19:03.284Z,97532.13
2022-08-16T12:21:57.814Z,97521.53
2022-08-16T12:24:17.814Z,97522.22
2022-08-16T12:26:44.442Z,97514.28
2022-08-16T12:29:11.235Z,97507.81
2022-08-16T12:31:37.713Z,97514.19
2022-08-16T12:34:28.906Z,97507.66
2022-08-16T12:36:55.861Z,97509.19
2022-08-16T12:39:22.398Z,97508.28
2022-08-16T12:41:49.697Z,97506.84
2022-08-16T12:44:20.029Z,97505.13
2022-08-16T12:47:07.901Z,97505.88
2022-08-16T12:49:41.738Z,97512.03
2022-08-16T12:52:09.225Z,97506.53
2022-08-16T12:54:37.302Z,97506.53
2022-08-16T12:57:08.371Z,97501.72
2022-08-16T12:59:41.051Z,97497.75
2022-08-16T13:02:07.862Z,97495.91
2022-08-16T13:04:39.234Z,97502.09
2022-08-16T13:07:08.649Z,97501.41
2022-08-16T13:09:42.720Z,97498.81
2022-08-16T13:12:24.938Z,97503.50
2022-08-16T13:14:53.348Z,97497.03
2022-08-16T13:17:26.336Z,97492.97
2022-08-16T13:20:07.118Z,97488.91
2022-08-16T13:25:20.863Z,97502.53
2022-08-16T13:28:03.459Z,97501.13
2022-08-16T13:30:41.855Z,97490.34
2022-08-16T13:33:12.687Z,97497.31
2022-08-16T13:35:44.567Z,97477.91
2022-08-16T13:38:24.340Z,97491.50
2022-08-16T13:40:56.811Z,97487.41
2022-08-16T13:43:28.851Z,97485.03
2022-08-16T13:46:02.832Z,97488.97
2022-08-16T13:48:42.968Z,97495.50
2022-08-16T13:51:17.334Z,97488.72
2022-08-16T13:53:54.686Z,97484.38
2022-08-16T13:56:37.110Z,97485.34
2022-08-16T13:59:19.465Z,97481.88
2022-08-16T14:01:55.532Z,97480.34
2022-08-16T14:04:34.203Z,97489.34
2022-08-16T14:07:04.332Z,97478.00
2022-08-16T14:09:34.306Z,97478.31
2022-08-16T14:12:01.392Z,97489.63
2022-08-16T14:14:36.219Z,97477.75
2022-08-16T14:17:04.784Z,97485.44
2022-08-16T14:19:36.425Z,97474.25
2022-08-16T14:22:14.444Z,97472.72
2022-08-16T14:24:51.906Z,97472.00
2022-08-16T14:27:22.108Z,97463.75
2022-08-16T14:29:50.064Z,97472.22
2022-08-16T14:32:34.116Z,97469.53
2022-08-16T14:35:09.790Z,97473.50
2022-08-16T14:37:38.179Z,97474.44
2022-08-16T14:40:07.364Z,97474.59
2022-08-16T14:42:35.948Z,97470.19
2022-08-16T14:45:05.278Z,97481.22
2022-08-16T14:47:34.840Z,97458.78
2022-08-16T14:50:02.015Z,97474.16
2022-08-16T14:52:54.096Z,97468.31
2022-08-16T14:55:15.494Z,97471.00
2022-08-16T14:57:43.389Z,97471.69
2022-08-16T15:00:12.799Z,97469.13
2022-08-16T15:02:42.295Z,97459.50
2022-08-16T15:05:11.409Z,97473.06
2022-08-16T15:07:40.152Z,97478.53
2022-08-16T15:10:08.658Z,97470.97
2022-08-16T15:12:48.542Z,97464.56
2022-08-16T15:15:20.311Z,97464.69
2022-08-16T15:17:53.728Z,97450.81
2022-08-16T15:20:21.521Z,97462.00
2022-08-16T15:22:50.236Z,97460.41
2022-08-16T15:25:29.399Z,97459.00
2022-08-16T15:27:56.901Z,97459.00
2022-08-16T15:30:58.015Z,97456.19
2022-08-16T15:33:14.971Z,97457.34
2022-08-16T15:35:42.956Z,97452.22
2022-08-16T15:38:10.277Z,97466.31
2022-08-16T15:40:58.674Z,97466.78
2022-08-16T15:43:33.750Z,97458.38
2022-08-16T15:46:54.286Z,97453.50
2022-08-16T15:49:13.396Z,97461.78
2022-08-16T15:51:41.162Z,97466.13
2022-08-16T15:54:21.284Z,97451.31
2022-08-16T15:57:09.644Z,97465.47
2022-08-16T15:59:48.840Z,97472.78
2022-08-16T16:02:21.686Z,97462.19
2022-08-16T16:04:54.948Z,97455.63
2022-08-16T16:07:21.821Z,97469.25
2022-08-16T16:09:48.693Z,97474.75
2022-08-16T16:12:43.680Z,97458.75
2022-08-16T16:15:03.236Z,97453.47
2022-08-16T16:17:29.959Z,97431.03
2022-08-16T16:19:56.421Z,97461.53
2022-08-16T16:22:25.323Z,97464.34
2022-08-16T16:24:52.988Z,97461.69
2022-08-16T16:27:21.928Z,97460.66
2022-08-16T16:29:57.747Z,97459.50
2022-08-16T16:32:34.400Z,97456.25
2022-08-16T16:35:02.235Z,97455.47
2022-08-16T16:37:31.018Z,97459.69
2022-08-16T16:39:58.632Z,97455.91
2022-08-16T16:42:30.138Z,97457.06
2022-08-16T16:45:01.245Z,97450.50
2022-08-16T16:47:40.653Z,97463.25
2022-08-16T16:50:09.625Z,97462.03
2022-08-16T16:52:44.095Z,97461.41
2022-08-16T16:55:15.520Z,97460.72
2022-08-16T16:58:03.296Z,97409.25
2022-08-16T17:00:38.170Z,97456.06
2022-08-16T17:03:17.099Z,97461.53
2022-08-16T17:05:56.908Z,97450.75
2022-08-16T17:08:30.687Z,97464.38
2022-08-16T17:10:57.675Z,97456.25
2022-08-16T17:13:25.022Z,97460.78
2022-08-16T17:15:53.952Z,97448.44
2022-08-16T17:19:15.123Z,97451.84
2022-08-16T17:21:08.958Z,97456.47
2022-08-16T17:23:59.723Z,97452.88
2022-08-16T17:26:30.086Z,97457.66
2022-08-16T17:29:02.321Z,97450.06
2022-08-16T17:31:43.176Z,97457.03
2022-08-16T17:34:29.005Z,97454.84
2022-08-16T17:37:04.962Z,97450.50
2022-08-16T17:39:35.454Z,97448.28
2022-08-16T17:42:22.358Z,97441.72
2022-08-16T17:44:51.875Z,97460.44
2022-08-16T17:47:18.349Z,97471.25
2022-08-16T17:49:44.945Z,97468.09
2022-08-16T17:52:11.990Z,97463.31
2022-08-16T17:54:38.464Z,97470.56
2022-08-16T17:57:04.888Z,97469.47
2022-08-16T17:59:32.085Z,97444.00
2022-08-16T18:02:15.436Z,97460.56
2022-08-16T18:04:55.587Z,97458.31
2022-08-16T18:07:22.244Z,97454.28
2022-08-16T18:09:48.684Z,97450.66
2022-08-16T18:12:54.531Z,97458.88
2022-08-16T18:15:13.427Z,97457.50
2022-08-16T18:17:40.569Z,97461.50
2022-08-16T18:20:28.847Z,97461.28
2022-08-16T18:23:03.299Z,97465.28
2022-08-16T18:25:29.957Z,97463.47
2022-08-16T18:27:56.386Z,97462.09
2022-08-16T18:30:22.836Z,97453.78
2022-08-16T18:32:51.067Z,97453.47
2022-08-16T18:35:18.976Z,97441.09
2022-08-16T18:37:45.570Z,97459.53
2022-08-16T18:40:12.956Z,97456.59
2022-08-16T18:42:39.524Z,97464.78
2022-08-16T18:45:07.014Z,97465.25
2022-08-16T18:47:33.465Z,97461.72
2022-08-16T18:50:00.401Z,97468.66
2022-08-16T18:52:26.924Z,97470.25
2022-08-16T18:55:02.920Z,97471.81
2022-08-16T18:57:40.479Z,97472.72
2022-08-16T19:00:11.299Z,97461.53
2022-08-16T19:02:56.950Z,97471.09
2022-08-16T19:05:29.171Z,97479.97
2022-08-16T19:07:55.600Z,97487.56
2022-08-16T19:10:22.858Z,97494.34
2022-08-16T19:12:49.524Z,97485.34
2022-08-16T19:15:20.494Z,97467.63
2022-08-16T19:17:47.419Z,97487.16
2022-08-16T19:20:17.708Z,97496.47
2022-08-16T19:25:48.388Z,97499.56
2022-08-16T19:28:49.841Z,97481.94
2022-08-16T19:31:23.679Z,97496.59
2022-08-16T19:33:54.856Z,97486.41
2022-08-16T19:36:31.876Z,97508.69
2022-08-16T19:39:07.219Z,97516.88
2022-08-16T19:41:37.586Z,97521.22
2022-08-16T19:44:05.710Z,97509.22
2022-08-16T19:46:32.319Z,97517.72
2022-08-16T19:48:58.991Z,97509.44
2022-08-16T19:51:25.488Z,97542.72
2022-08-16T19:53:51.922Z,97538.56
2022-08-16T19:56:18.672Z,97535.09
2022-08-16T19:59:08.787Z,97544.41
2022-08-16T20:01:32.359Z,97544.44
2022-08-16T20:03:58.770Z,97543.94
2022-08-16T20:06:37.492Z,97544.28
2022-08-16T20:09:05.615Z,97539.47
2022-08-16T20:11:32.516Z,97541.09
2022-08-16T20:13:59.424Z,97540.16
2022-08-16T20:16:26.080Z,97548.13
2022-08-16T20:18:52.679Z,97553.88
2022-08-16T20:21:19.440Z,97550.16
2022-08-16T20:23:46.175Z,97548.78
2022-08-16T20:26:12.710Z,97540.22
2022-08-16T20:28:52.286Z,97555.41
2022-08-16T20:31:20.213Z,97539.59
2022-08-16T20:33:46.770Z,97556.84
2022-08-16T20:36:16.016Z,97545.31
2022-08-16T20:38:45.729Z,97556.84
2022-08-16T20:41:12.637Z,97558.41
2022-08-16T20:43:39.079Z,97553.47
2022-08-16T20:46:05.651Z,97561.13
2022-08-16T20:48:32.094Z,97571.19
2022-08-16T20:50:58.519Z,97568.78
2022-08-16T20:53:25.082Z,97570.06
2022-08-16T20:55:51.798Z,97571.56
2022-08-16T20:58:18.368Z,97568.38
2022-08-16T21:00:45.433Z,97558.56
2022-08-16T21:03:13.830Z,97541.63
2022-08-16T21:05:40.904Z,97558.22
2022-08-16T21:08:52.787Z,97559.13
2022-08-16T21:10:54.432Z,97560.66
2022-08-16T21:13:20.973Z,97546.00
2022-08-16T21:15:47.970Z,97575.72
2022-08-16T21:18:14.503Z,97571.72
2022-08-16T21:20:41.166Z,97573.78
2022-08-16T21:23:09.931Z,97577.47
2022-08-16T21:25:58.161Z,97586.56
2022-08-16T21:28:38.796Z,97572.28
2022-08-16T21:31:14.075Z,97581.53
2022-08-16T21:33:40.888Z,97577.44
2022-08-16T21:36:07.761Z,97580.66
2022-08-16T21:38:34.290Z,97580.06
2022-08-16T21:41:03.617Z,97571.81
2022-08-16T21:43:33.190Z,97564.50
2022-08-16T21:46:01.958Z,97583.63
2022-08-16T21:48:33.416Z,97582.34
2022-08-16T21:51:01.300Z,97583.03
2022-08-16T21:53:29.397Z,97553.66
2022-08-16T21:55:58.405Z,97572.94
2022-08-16T21:58:26.014Z,97581.06
2022-08-16T22:00:53.090Z,97581.34
2022-08-16T22:03:20.998Z,97581.44
2022-08-16T22:06:13.188Z,97581.34
2022-08-16T22:08:39.575Z,97564.06
2022-08-16T22:11:20.235Z,97571.31
2022-08-16T22:13:51.258Z,97574.84
2022-08-16T22:16:29.331Z,97579.25
2022-08-16T22:18:55.923Z,97575.00
2022-08-16T22:21:22.887Z,97581.25
2022-08-16T22:23:56.650Z,97558.75
2022-08-16T22:26:31.771Z,97569.38
2022-08-16T22:29:00.787Z,97564.81
2022-08-16T22:31:27.418Z,97563.41
2022-08-16T22:33:53.929Z,97567.63
2022-08-16T22:36:20.486Z,97570.72
2022-08-16T22:38:56.397Z,97568.81
2022-08-16T22:41:25.099Z,97568.53
2022-08-16T22:43:51.864Z,97575.03
2022-08-16T22:46:19.354Z,97565.72
2022-08-16T22:48:46.065Z,97590.78
2022-08-16T22:51:12.637Z,97561.06
2022-08-16T22:53:39.095Z,97587.06
2022-08-16T22:56:05.702Z,97594.56
2022-08-16T22:58:36.581Z,97590.16
2022-08-16T23:01:06.190Z,97587.09
2022-08-16T23:03:33.358Z,97572.44
2022-08-16T23:06:00.692Z,97593.59
2022-08-16T23:08:39.199Z,97588.41
2022-08-16T23:11:13.768Z,97581.78
2022-08-16T23:13:52.901Z,97580.97
2022-08-16T23:16:24.883Z,97577.97
2022-08-16T23:18:57.388Z,97572.72
2022-08-16T23:21:24.284Z,97587.16
2022-08-16T23:23:53.286Z,97568.84
2022-08-16T23:26:44.235Z,97578.81
2022-08-16T23:29:15.897Z,97562.88
2022-08-16T23:31:54.083Z,97578.97
2022-08-16T23:34:21.947Z,97584.50
2022-08-16T23:36:48.456Z,97575.84
2022-08-16T23:39:15.827Z,97576.91
2022-08-16T23:41:43.756Z,97575.28
2022-08-16T23:44:42.223Z,97572.75
2022-08-16T23:46:57.390Z,97565.88
2022-08-16T23:49:56.712Z,97562.69
2022-08-16T23:52:10.516Z,97564.72
2022-08-16T23:54:36.988Z,97564.88
2022-08-16T23:57:03.613Z,97563.41
2022-08-16T23:59:30.194Z,97563.06
